Xunwu, China
Current Conditions -  °F | °C
As of 6:00 PM on Thursday 29 Jan 2015 (Local Time) from ZGOW Reporting Station
Clear Clear  
Wind Chill: 17°   Ceiling: Unl
Heat Index: 17°   Visibility: 4mi
Dew Point: 12°   Wind: 11mph
Humidity: 72%   Direction: 110°ESE
Pressure: 30.06"   Gusts: NA
Location:  24.95°N, 115.65°E
Report Text: ZGOW 291000Z 11005MPS 7000 NSC 17/12 Q1018 NOSIG
Loading
Personal Weather Stations






























Interactive Weather Map New forecast layout! Learn more

10-Day Weather Forecast

Advertisements
Track Severe Weather on mobile